createdAt,value
2018-11-23T00:00:32.992Z,84.40
2018-11-23T00:01:05.911Z,84.20
2018-11-23T00:01:38.492Z,84.00
2018-11-23T00:02:11.100Z,83.90
2018-11-23T00:02:44.680Z,83.80
2018-11-23T00:03:17.283Z,83.80
2018-11-23T00:03:49.936Z,84.00
2018-11-23T00:04:22.568Z,84.00
2018-11-23T00:04:55.298Z,83.70
2018-11-23T00:05:27.964Z,83.50
2018-11-23T00:06:00.597Z,83.40
2018-11-23T00:06:33.198Z,83.60
2018-11-23T00:07:05.853Z,83.60
2018-11-23T00:07:38.883Z,83.80
2018-11-23T00:08:11.473Z,84.10
2018-11-23T00:08:44.311Z,84.30
2018-11-23T00:09:16.894Z,84.50
2018-11-23T00:09:49.473Z,84.50
2018-11-23T00:10:23.339Z,84.50
2018-11-23T00:10:55.914Z,84.20
2018-11-23T00:11:28.519Z,84.20
2018-11-23T00:12:01.117Z,84.30
2018-11-23T00:12:33.712Z,84.50
2018-11-23T00:13:06.307Z,84.50
2018-11-23T00:13:38.964Z,84.50
2018-11-23T00:14:11.560Z,84.30
2018-11-23T00:14:44.174Z,84.30
2018-11-23T00:15:19.070Z,84.50
2018-11-23T00:15:51.655Z,84.20
2018-11-23T00:16:24.215Z,83.50
2018-11-23T00:16:56.803Z,83.50
2018-11-23T00:17:29.406Z,83.70
2018-11-23T00:18:02.001Z,83.90
2018-11-23T00:18:34.607Z,84.20
2018-11-23T00:19:07.244Z,84.20
2018-11-23T00:19:39.839Z,83.90
2018-11-23T00:20:14.948Z,83.60
2018-11-23T00:20:47.536Z,83.50
2018-11-23T00:21:20.140Z,83.60
2018-11-23T00:21:52.716Z,83.70
2018-11-23T00:22:25.342Z,84.30
2018-11-23T00:22:57.958Z,84.50
2018-11-23T00:23:30.542Z,84.90
2018-11-23T00:24:03.159Z,84.80
2018-11-23T00:24:35.750Z,84.70
2018-11-23T00:25:10.423Z,84.40
2018-11-23T00:25:43.020Z,84.20
2018-11-23T00:26:15.649Z,84.20
2018-11-23T00:26:48.253Z,84.20
2018-11-23T00:27:20.869Z,84.00
2018-11-23T00:27:53.992Z,84.00
2018-11-23T00:28:26.600Z,84.00
2018-11-23T00:28:59.189Z,83.80
2018-11-23T00:29:31.772Z,83.90
2018-11-23T00:30:05.859Z,83.80
2018-11-23T00:30:38.442Z,83.80
2018-11-23T00:31:11.021Z,84.00
2018-11-23T00:31:43.613Z,84.40
2018-11-23T00:32:16.191Z,84.30
2018-11-23T00:32:49.209Z,84.00
2018-11-23T00:33:21.852Z,83.90
2018-11-23T00:33:54.748Z,83.80
2018-11-23T00:34:27.404Z,83.80
2018-11-23T00:35:00.009Z,83.90
2018-11-23T00:35:32.588Z,84.20
2018-11-23T00:36:05.736Z,84.20
2018-11-23T00:36:38.313Z,84.40
2018-11-23T00:37:10.933Z,84.60
2018-11-23T00:37:43.983Z,84.50
2018-11-23T00:38:16.577Z,84.30
2018-11-23T00:38:49.194Z,84.50
2018-11-23T00:39:22.098Z,84.10
2018-11-23T00:39:54.699Z,84.00
2018-11-23T00:40:30.246Z,84.10
2018-11-23T00:41:02.851Z,84.40
2018-11-23T00:41:35.466Z,84.50
2018-11-23T00:42:08.069Z,84.70
2018-11-23T00:42:41.039Z,84.40
2018-11-23T00:43:13.637Z,84.30
2018-11-23T00:43:46.233Z,84.60
2018-11-23T00:44:18.852Z,84.40
2018-11-23T00:45:54.516Z,84.00
2018-11-23T00:46:27.100Z,84.20
2018-11-23T00:46:59.675Z,85.00
2018-11-23T00:47:32.268Z,85.20
2018-11-23T00:48:05.052Z,85.30
2018-11-23T00:48:37.640Z,85.20
2018-11-23T00:49:10.224Z,85.60
2018-11-23T00:49:42.844Z,85.80
2018-11-23T00:50:16.623Z,85.80
2018-11-23T00:50:49.229Z,85.80
2018-11-23T00:51:21.822Z,85.80
2018-11-23T00:51:54.405Z,85.90
2018-11-23T00:52:27.084Z,85.70
2018-11-23T00:53:00.171Z,85.70
2018-11-23T00:53:32.749Z,85.60
2018-11-23T00:54:05.375Z,85.00
2018-11-23T00:54:38.001Z,84.70
2018-11-23T00:55:12.235Z,84.90
2018-11-23T00:55:44.803Z,84.80
2018-11-23T00:56:17.379Z,84.70
2018-11-23T00:56:49.964Z,84.90
2018-11-23T00:57:22.558Z,85.00
2018-11-23T00:57:55.197Z,85.00
2018-11-23T00:58:27.796Z,84.40
2018-11-23T00:59:00.791Z,84.30
2018-11-23T00:59:33.390Z,84.30
2018-11-23T01:00:09.985Z,84.50
2018-11-23T01:00:42.595Z,84.60
2018-11-23T01:01:15.224Z,84.60
2018-11-23T01:01:53.543Z,84.70
2018-11-23T01:02:26.129Z,84.70
2018-11-23T01:02:59.502Z,84.60
2018-11-23T01:03:32.083Z,84.10
2018-11-23T01:04:04.782Z,83.90
2018-11-23T01:04:37.375Z,83.90
2018-11-23T01:05:11.201Z,84.10
2018-11-23T01:05:43.842Z,84.10
2018-11-23T01:06:16.436Z,84.70
2018-11-23T01:06:49.024Z,85.00
2018-11-23T01:07:21.663Z,85.40
2018-11-23T01:07:54.426Z,85.20
2018-11-23T01:08:27.012Z,84.90
2018-11-23T01:08:59.618Z,84.80
2018-11-23T01:09:32.301Z,84.60
2018-11-23T01:10:07.396Z,84.20
2018-11-23T01:10:39.996Z,84.30
2018-11-23T01:11:12.657Z,84.40
2018-11-23T01:11:45.240Z,84.60
2018-11-23T01:12:17.837Z,84.90
2018-11-23T01:12:51.493Z,84.80
2018-11-23T01:13:24.081Z,84.80
2018-11-23T01:13:56.709Z,84.80
2018-11-23T01:14:29.477Z,85.10
2018-11-23T01:15:02.104Z,85.10
2018-11-23T01:15:34.701Z,84.90
2018-11-23T01:16:07.290Z,84.50
2018-11-23T01:16:39.902Z,84.80
2018-11-23T01:17:12.484Z,84.70
2018-11-23T01:17:45.060Z,84.60
2018-11-23T01:18:17.650Z,84.70
2018-11-23T01:18:50.251Z,84.40
2018-11-23T01:19:22.847Z,84.40
2018-11-23T01:19:55.489Z,84.60
2018-11-23T01:20:28.336Z,84.80
2018-11-23T01:21:00.916Z,84.90
2018-11-23T01:21:33.555Z,85.00
2018-11-23T01:22:06.201Z,85.30
2018-11-23T01:22:39.350Z,85.50
2018-11-23T01:23:11.927Z,86.10
2018-11-23T01:23:44.517Z,85.50
2018-11-23T01:24:17.093Z,85.20
2018-11-23T01:24:49.677Z,84.80
2018-11-23T01:25:23.192Z,84.60
2018-11-23T01:25:55.807Z,84.30
2018-11-23T01:26:28.402Z,84.20
2018-11-23T01:27:00.980Z,84.30
2018-11-23T01:27:33.592Z,84.30
2018-11-23T01:28:06.187Z,84.30
2018-11-23T01:28:38.758Z,84.40
2018-11-23T01:29:11.349Z,84.80
2018-11-23T01:29:43.923Z,84.90
2018-11-23T01:30:19.682Z,84.50
2018-11-23T01:30:52.279Z,84.40
2018-11-23T01:31:24.870Z,84.60
2018-11-23T01:31:57.465Z,84.80
2018-11-23T01:32:30.040Z,84.90
2018-11-23T01:33:02.643Z,84.80
2018-11-23T01:33:35.217Z,84.70
2018-11-23T01:34:07.796Z,84.60
2018-11-23T01:34:40.382Z,84.50
2018-11-23T01:35:13.223Z,84.40
2018-11-23T01:35:45.819Z,84.70
2018-11-23T01:36:18.419Z,84.80
2018-11-23T01:36:51.012Z,84.60
2018-11-23T01:37:23.692Z,84.50
2018-11-23T01:37:56.274Z,84.60
2018-11-23T01:38:28.897Z,84.70
2018-11-23T01:39:01.507Z,84.70
2018-11-23T01:39:34.096Z,84.60
2018-11-23T01:40:08.457Z,84.50
2018-11-23T01:40:41.053Z,84.80
2018-11-23T01:41:13.657Z,85.00
2018-11-23T01:41:46.255Z,85.00
2018-11-23T01:42:18.855Z,84.70
2018-11-23T01:42:51.879Z,84.60
2018-11-23T01:43:24.454Z,84.80
2018-11-23T01:43:57.059Z,84.70
2018-11-23T01:44:33.719Z,84.90
2018-11-23T01:45:07.483Z,85.00
2018-11-23T01:45:40.082Z,85.70
2018-11-23T01:46:12.679Z,85.20
2018-11-23T01:46:45.304Z,85.20
2018-11-23T01:47:19.751Z,85.40
2018-11-23T01:47:52.376Z,85.30
2018-11-23T01:48:24.951Z,85.20
2018-11-23T01:48:57.574Z,85.50
2018-11-23T01:49:30.159Z,85.90
2018-11-23T01:50:02.988Z,85.90
2018-11-23T01:50:35.574Z,85.90
2018-11-23T01:51:08.155Z,85.80
2018-11-23T01:51:40.746Z,86.30
2018-11-23T01:52:13.375Z,86.10
2018-11-23T01:52:47.119Z,86.20
2018-11-23T01:53:19.703Z,86.10
2018-11-23T01:53:52.285Z,86.10
2018-11-23T01:54:24.903Z,86.20
2018-11-23T01:54:57.502Z,86.20
2018-11-23T01:55:30.105Z,86.10
2018-11-23T01:56:02.711Z,85.60
2018-11-23T01:56:35.318Z,85.60
2018-11-23T01:57:07.961Z,85.70
2018-11-23T01:57:41.124Z,85.80
2018-11-23T01:58:13.731Z,85.90
2018-11-23T01:58:46.327Z,85.60
2018-11-23T01:59:18.919Z,85.40
2018-11-23T01:59:51.522Z,85.20
2018-11-23T02:00:25.469Z,84.80
2018-11-23T02:00:58.036Z,84.80
2018-11-23T02:01:30.623Z,85.10
2018-11-23T02:02:03.246Z,85.00
2018-11-23T02:02:35.862Z,84.90
2018-11-23T02:03:08.445Z,84.80
2018-11-23T02:03:41.029Z,85.00
2018-11-23T02:04:13.616Z,85.00
2018-11-23T02:04:46.198Z,84.90
2018-11-23T02:05:18.875Z,84.90
2018-11-23T02:05:51.498Z,85.10
2018-11-23T02:06:24.087Z,85.40
2018-11-23T02:06:56.700Z,85.60
2018-11-23T02:07:29.312Z,85.50
2018-11-23T02:08:01.901Z,85.30
2018-11-23T02:08:34.537Z,85.20
2018-11-23T02:09:07.707Z,85.20
2018-11-23T02:09:40.324Z,85.00
2018-11-23T02:10:14.382Z,85.00
2018-11-23T02:10:47.029Z,85.10
2018-11-23T02:11:19.650Z,85.10
2018-11-23T02:11:52.304Z,85.20
2018-11-23T02:12:24.916Z,85.10
2018-11-23T02:12:57.528Z,85.20
2018-11-23T02:13:30.141Z,85.30
2018-11-23T02:14:02.786Z,85.40
2018-11-23T02:14:35.401Z,85.40
2018-11-23T02:15:11.317Z,85.20
2018-11-23T02:15:43.926Z,85.40
2018-11-23T02:16:16.576Z,85.50
2018-11-23T02:16:49.301Z,85.50
2018-11-23T02:17:23.321Z,85.30
2018-11-23T02:17:55.918Z,85.30
2018-11-23T02:18:28.519Z,85.10
2018-11-23T02:19:01.129Z,85.10
2018-11-23T02:19:33.753Z,84.80
2018-11-23T02:20:08.414Z,85.00
2018-11-23T02:20:41.028Z,85.00
2018-11-23T02:21:13.680Z,85.40
2018-11-23T02:21:46.312Z,85.40
2018-11-23T02:22:18.937Z,85.60
2018-11-23T02:22:54.240Z,85.60
2018-11-23T02:23:26.847Z,85.50
2018-11-23T02:23:59.461Z,85.70
2018-11-23T02:24:32.081Z,85.90
2018-11-23T02:25:04.849Z,85.90
2018-11-23T02:25:37.473Z,85.70
2018-11-23T02:26:10.085Z,85.80
2018-11-23T02:26:42.688Z,85.90
2018-11-23T02:27:15.319Z,85.80
2018-11-23T02:27:47.941Z,85.90
2018-11-23T02:28:20.555Z,86.00
2018-11-23T02:28:53.138Z,85.90
2018-11-23T02:29:25.756Z,85.90
2018-11-23T02:29:58.343Z,86.00
2018-11-23T02:30:30.979Z,86.30
2018-11-23T02:31:08.780Z,86.30
2018-11-23T02:31:41.396Z,86.30
2018-11-23T02:32:14.022Z,86.20
2018-11-23T02:32:46.651Z,86.00
2018-11-23T02:33:19.282Z,85.80
2018-11-23T02:33:51.889Z,85.90
2018-11-23T02:34:24.507Z,85.80
2018-11-23T02:34:57.144Z,85.70
2018-11-23T02:35:29.740Z,86.20
2018-11-23T02:36:02.352Z,85.80
2018-11-23T02:36:34.954Z,86.20
2018-11-23T02:37:07.576Z,86.50
2018-11-23T02:37:40.358Z,86.60
2018-11-23T02:38:12.986Z,86.50
2018-11-23T02:38:45.577Z,86.50
2018-11-23T02:39:18.189Z,86.60
2018-11-23T02:39:50.801Z,86.80
2018-11-23T02:40:23.413Z,86.90
2018-11-23T02:40:56.036Z,86.90
2018-11-23T02:41:28.697Z,86.80
2018-11-23T02:42:01.317Z,87.00
2018-11-23T02:42:33.971Z,87.00
2018-11-23T02:43:06.588Z,86.70
2018-11-23T02:43:39.207Z,86.70
2018-11-23T02:44:11.816Z,86.70
2018-11-23T02:44:44.430Z,86.50
2018-11-23T02:45:19.323Z,86.40
2018-11-23T02:45:51.930Z,86.40
2018-11-23T02:46:24.550Z,86.50
2018-11-23T02:46:57.156Z,86.30
2018-11-23T02:47:29.780Z,85.90
2018-11-23T02:48:02.400Z,86.00
2018-11-23T02:48:35.014Z,86.10
2018-11-23T02:49:07.645Z,86.20
2018-11-23T02:49:40.261Z,86.30
2018-11-23T02:50:12.939Z,86.50
2018-11-23T02:50:45.564Z,86.70
2018-11-23T02:51:18.171Z,86.90
2018-11-23T02:51:50.785Z,87.20
2018-11-23T02:52:23.376Z,87.40
2018-11-23T02:52:55.986Z,87.30
2018-11-23T02:53:28.607Z,88.00
2018-11-23T02:54:01.251Z,87.30
2018-11-23T02:54:33.902Z,87.70
2018-11-23T02:55:07.287Z,87.10
2018-11-23T02:55:39.897Z,87.00
2018-11-23T02:56:12.519Z,87.00
2018-11-23T02:56:46.233Z,87.00
2018-11-23T02:57:18.830Z,87.40
2018-11-23T02:57:51.444Z,87.50
2018-11-23T02:58:24.077Z,87.40
2018-11-23T02:58:56.667Z,87.40
2018-11-23T02:59:29.279Z,87.50
2018-11-23T03:00:01.996Z,87.80
2018-11-23T03:00:34.613Z,87.80
2018-11-23T03:01:07.242Z,87.80
2018-11-23T03:01:41.127Z,87.60
2018-11-23T03:02:13.727Z,87.90
2018-11-23T03:02:46.397Z,87.90
2018-11-23T03:03:19.014Z,87.80
2018-11-23T03:03:51.613Z,87.90
2018-11-23T03:04:24.436Z,88.00
2018-11-23T03:04:57.041Z,88.20
2018-11-23T03:05:29.643Z,88.40
2018-11-23T03:06:02.260Z,88.70
2018-11-23T03:06:35.233Z,88.80
2018-11-23T03:07:07.862Z,88.90
2018-11-23T03:07:40.823Z,88.90
2018-11-23T03:08:13.465Z,88.90
2018-11-23T03:08:46.072Z,88.80
2018-11-23T03:09:18.676Z,89.00
2018-11-23T03:09:51.314Z,89.10
2018-11-23T03:10:23.933Z,88.90
2018-11-23T03:10:56.563Z,88.90
2018-11-23T03:11:29.147Z,88.90
2018-11-23T03:12:01.774Z,88.90
2018-11-23T03:12:34.384Z,89.30
2018-11-23T03:13:07.005Z,89.20
2018-11-23T03:13:39.603Z,89.30
2018-11-23T03:14:12.207Z,89.30
2018-11-23T03:14:44.820Z,89.30
2018-11-23T03:15:18.584Z,89.20
2018-11-23T03:15:51.179Z,89.20
2018-11-23T03:16:23.861Z,89.30
2018-11-23T03:16:56.464Z,89.50
2018-11-23T03:17:29.061Z,89.80
2018-11-23T03:18:01.656Z,90.00
2018-11-23T03:18:34.276Z,90.00
2018-11-23T03:19:07.452Z,90.20
2018-11-23T03:19:40.039Z,90.20
2018-11-23T03:20:14.432Z,90.10
2018-11-23T03:20:47.044Z,90.10
2018-11-23T03:21:19.664Z,90.10
2018-11-23T03:21:52.364Z,90.10
2018-11-23T03:22:24.972Z,90.20
2018-11-23T03:22:58.093Z,90.20
2018-11-23T03:23:30.692Z,90.20
2018-11-23T03:24:03.365Z,90.30
2018-11-23T03:24:35.988Z,90.40
2018-11-23T03:25:09.639Z,90.40
2018-11-23T03:25:42.235Z,90.40
2018-11-23T03:26:14.861Z,90.40
2018-11-23T03:26:47.481Z,90.40
2018-11-23T03:27:20.094Z,90.50
2018-11-23T03:27:53.044Z,90.50
2018-11-23T03:28:25.655Z,90.60
2018-11-23T03:28:58.264Z,90.70
2018-11-23T03:29:30.875Z,90.80
2018-11-23T03:30:04.917Z,90.90
2018-11-23T03:30:37.523Z,91.00
2018-11-23T03:31:12.549Z,91.00
2018-11-23T03:31:42.787Z,91.00
2018-11-23T03:32:15.383Z,91.00
2018-11-23T03:32:48.831Z,91.00
2018-11-23T03:33:21.442Z,91.00
2018-11-23T03:33:54.540Z,91.00
2018-11-23T03:34:27.164Z,91.00
2018-11-23T03:34:59.760Z,90.90
2018-11-23T03:35:32.352Z,91.00
2018-11-23T03:36:05.000Z,91.00
2018-11-23T03:36:37.609Z,91.30
2018-11-23T03:37:10.192Z,90.90
2018-11-23T03:37:43.108Z,90.80
2018-11-23T03:38:15.741Z,90.80
2018-11-23T03:38:48.374Z,90.80
2018-11-23T03:39:20.975Z,90.90
2018-11-23T03:39:53.589Z,91.00
2018-11-23T03:40:26.204Z,91.10
2018-11-23T03:40:58.859Z,91.10
2018-11-23T03:41:31.458Z,91.00
2018-11-23T03:42:04.192Z,91.00
2018-11-23T03:42:36.797Z,91.10
2018-11-23T03:43:09.394Z,91.20
2018-11-23T03:43:42.278Z,91.10
2018-11-23T03:44:14.911Z,91.00
2018-11-23T03:44:47.512Z,91.00
2018-11-23T03:45:20.107Z,91.10
2018-11-23T03:45:52.716Z,91.10
2018-11-23T03:46:25.333Z,90.90
2018-11-23T03:46:57.944Z,91.00
2018-11-23T03:47:30.567Z,91.10
2018-11-23T03:48:03.187Z,91.20
2018-11-23T03:48:35.799Z,91.30
2018-11-23T03:49:08.440Z,91.30
2018-11-23T03:49:41.045Z,91.30
2018-11-23T03:50:14.508Z,91.40
2018-11-23T03:50:47.103Z,91.20
2018-11-23T03:51:19.723Z,91.50
2018-11-23T03:51:52.333Z,91.50
2018-11-23T03:52:24.945Z,91.60
2018-11-23T03:52:57.593Z,91.70
2018-11-23T03:53:30.180Z,91.70
2018-11-23T03:54:03.096Z,91.60
2018-11-23T03:54:35.724Z,91.60
2018-11-23T03:55:08.430Z,91.70
2018-11-23T03:55:41.046Z,91.80
2018-11-23T03:56:13.662Z,91.80
2018-11-23T03:56:46.273Z,91.90
2018-11-23T03:57:18.896Z,92.00
2018-11-23T03:57:51.487Z,92.10
2018-11-23T03:58:24.121Z,92.20
2018-11-23T03:58:56.729Z,92.20
2018-11-23T03:59:29.329Z,92.20
2018-11-23T04:00:01.987Z,92.10
2018-11-23T04:00:34.630Z,92.10
2018-11-23T04:01:07.235Z,92.20
2018-11-23T04:01:39.839Z,92.10
2018-11-23T04:02:12.436Z,92.10
2018-11-23T04:02:45.112Z,92.10
2018-11-23T04:03:17.721Z,92.20
2018-11-23T04:03:50.376Z,92.30
2018-11-23T04:04:23.006Z,92.30
2018-11-23T04:04:56.186Z,92.30
2018-11-23T04:05:28.817Z,92.40
2018-11-23T04:06:01.426Z,92.30
2018-11-23T04:06:34.114Z,92.40
2018-11-23T04:07:06.753Z,92.30
2018-11-23T04:07:39.350Z,92.40
2018-11-23T04:08:11.977Z,92.40
2018-11-23T04:08:44.612Z,92.40
2018-11-23T04:09:17.237Z,92.60
2018-11-23T04:09:49.942Z,92.60
2018-11-23T04:10:22.540Z,92.50
2018-11-23T04:10:55.159Z,92.60
2018-11-23T04:11:27.778Z,92.70
2018-11-23T04:12:00.381Z,92.80
2018-11-23T04:12:32.991Z,92.80
2018-11-23T04:13:05.639Z,92.90
2018-11-23T04:13:38.248Z,92.90
2018-11-23T04:14:10.847Z,92.90
2018-11-23T04:14:43.532Z,93.00
2018-11-23T04:15:16.189Z,93.20
2018-11-23T04:15:48.802Z,93.20
2018-11-23T04:16:21.439Z,93.20
2018-11-23T04:16:54.131Z,93.40
2018-11-23T04:17:26.752Z,93.30
2018-11-23T04:17:59.365Z,93.30
2018-11-23T04:18:31.993Z,93.20
2018-11-23T04:19:04.872Z,93.10
2018-11-23T04:19:37.537Z,93.10
2018-11-23T04:20:11.835Z,93.40
2018-11-23T04:20:51.931Z,93.30
2018-11-23T04:21:24.570Z,93.30
2018-11-23T04:21:57.198Z,93.30
2018-11-23T04:22:29.806Z,93.30
2018-11-23T04:23:02.413Z,93.20
2018-11-23T04:23:35.039Z,93.30
2018-11-23T04:24:07.662Z,93.30
2018-11-23T04:24:40.258Z,93.40
2018-11-23T04:25:13.440Z,93.30
2018-11-23T04:25:46.043Z,93.30
2018-11-23T04:26:24.580Z,93.30
2018-11-23T04:26:51.330Z,93.50
2018-11-23T04:27:23.959Z,93.50
2018-11-23T04:27:56.568Z,93.40
2018-11-23T04:28:29.273Z,93.50
2018-11-23T04:29:01.888Z,93.50
2018-11-23T04:29:34.520Z,93.50
2018-11-23T04:30:09.303Z,93.50
2018-11-23T04:30:41.929Z,93.60
2018-11-23T04:31:14.527Z,93.70
2018-11-23T04:31:47.136Z,93.70
2018-11-23T04:32:20.145Z,93.90
2018-11-23T04:32:52.766Z,93.70
2018-11-23T04:33:25.940Z,93.60
2018-11-23T04:33:58.531Z,93.60
2018-11-23T04:34:31.129Z,93.60
2018-11-23T04:35:04.581Z,93.80
2018-11-23T04:35:37.195Z,93.70
2018-11-23T04:36:09.879Z,93.80
2018-11-23T04:36:42.489Z,93.70
2018-11-23T04:37:15.100Z,93.70
2018-11-23T04:37:48.212Z,93.70
2018-11-23T04:38:20.837Z,93.80
2018-11-23T04:38:53.502Z,93.90
2018-11-23T04:39:26.097Z,93.90
2018-11-23T04:39:58.719Z,93.80
2018-11-23T04:40:31.332Z,94.00
2018-11-23T04:41:04.093Z,93.90
2018-11-23T04:41:36.727Z,94.00
2018-11-23T04:42:09.349Z,94.00
2018-11-23T04:42:42.385Z,94.00
2018-11-23T04:43:15.020Z,94.00
2018-11-23T04:43:47.936Z,94.00
2018-11-23T04:44:20.580Z,94.10
2018-11-23T04:44:53.189Z,94.00
2018-11-23T04:45:25.847Z,94.10
2018-11-23T04:45:58.460Z,93.90
2018-11-23T04:46:31.081Z,94.00
2018-11-23T04:47:03.717Z,94.00
2018-11-23T04:47:36.798Z,94.10
2018-11-23T04:48:09.397Z,94.10
2018-11-23T04:48:42.023Z,94.10
2018-11-23T04:49:14.648Z,94.20
2018-11-23T04:49:47.253Z,94.20
2018-11-23T04:50:19.877Z,94.30
2018-11-23T04:50:52.487Z,94.30
2018-11-23T04:51:25.098Z,94.30
2018-11-23T04:51:57.721Z,94.20
2018-11-23T04:52:30.348Z,94.20
2018-11-23T04:53:02.970Z,94.40
2018-11-23T04:53:35.551Z,94.10
2018-11-23T04:54:08.166Z,94.00
2018-11-23T04:54:40.788Z,94.00
2018-11-23T04:55:13.391Z,94.00
2018-11-23T04:55:45.985Z,94.00
2018-11-23T04:56:18.583Z,94.10
2018-11-23T04:56:51.189Z,94.20
2018-11-23T04:57:23.796Z,94.30
2018-11-23T04:57:56.421Z,94.40
2018-11-23T04:58:29.062Z,94.40
2018-11-23T04:59:01.662Z,94.30
2018-11-23T04:59:34.305Z,94.30
2018-11-23T05:00:10.868Z,94.30
2018-11-23T05:00:43.481Z,94.30
2018-11-23T05:01:16.084Z,94.50
2018-11-23T05:01:48.701Z,94.40
2018-11-23T05:02:21.312Z,94.40
2018-11-23T05:02:53.933Z,94.30
2018-11-23T05:03:26.530Z,94.30
2018-11-23T05:03:59.114Z,94.30
2018-11-23T05:04:31.716Z,94.30
2018-11-23T05:05:05.896Z,94.20
2018-11-23T05:05:38.515Z,94.10
2018-11-23T05:06:11.148Z,94.10
2018-11-23T05:06:43.838Z,94.20
2018-11-23T05:07:16.420Z,94.40
2018-11-23T05:07:49.054Z,94.30
2018-11-23T05:08:21.651Z,94.20
2018-11-23T05:08:54.285Z,94.10
2018-11-23T05:09:26.888Z,94.10
2018-11-23T05:09:59.493Z,94.10
2018-11-23T05:10:32.133Z,94.10
2018-11-23T05:11:04.752Z,94.10
2018-11-23T05:11:37.974Z,94.20
2018-11-23T05:12:10.580Z,94.10
2018-11-23T05:12:43.244Z,94.00
2018-11-23T05:13:15.840Z,94.00
2018-11-23T05:13:48.470Z,94.10
2018-11-23T05:14:21.116Z,94.10
2018-11-23T05:14:53.723Z,94.20
2018-11-23T05:15:26.327Z,94.10
2018-11-23T05:15:58.965Z,94.20
2018-11-23T05:16:31.579Z,94.20
2018-11-23T05:17:04.224Z,94.20
2018-11-23T05:17:36.952Z,94.20
2018-11-23T05:18:09.559Z,94.20
2018-11-23T05:18:42.170Z,94.20
2018-11-23T05:19:14.788Z,94.50
2018-11-23T05:19:47.390Z,94.20
2018-11-23T05:20:19.983Z,94.20
2018-11-23T05:20:52.594Z,94.20
2018-11-23T05:21:25.218Z,94.10
2018-11-23T05:21:57.819Z,94.10
2018-11-23T05:22:30.435Z,94.10
2018-11-23T05:23:03.031Z,94.20
2018-11-23T05:23:35.615Z,94.30
2018-11-23T05:24:08.207Z,94.30
2018-11-23T05:24:40.827Z,94.30
2018-11-23T05:25:14.724Z,94.30
2018-11-23T05:25:47.326Z,94.30
2018-11-23T05:26:19.935Z,94.30
2018-11-23T05:26:52.551Z,94.30
2018-11-23T05:27:25.157Z,94.30
2018-11-23T05:27:57.755Z,94.20
2018-11-23T05:28:30.363Z,94.20
2018-11-23T05:29:02.987Z,94.30
2018-11-23T05:29:35.585Z,94.10
2018-11-23T05:30:13.797Z,94.20
2018-11-23T05:30:46.409Z,94.40
2018-11-23T05:31:19.013Z,94.20
2018-11-23T05:31:51.625Z,94.00
2018-11-23T05:32:24.261Z,94.00
2018-11-23T05:32:56.901Z,94.00
2018-11-23T05:33:29.514Z,94.00
2018-11-23T05:34:02.125Z,94.00
2018-11-23T05:34:34.730Z,94.00
2018-11-23T05:35:08.089Z,93.90
2018-11-23T05:35:40.688Z,93.90
2018-11-23T05:36:13.296Z,93.90
2018-11-23T05:36:45.904Z,93.80
2018-11-23T05:37:18.512Z,93.80
2018-11-23T05:37:51.151Z,93.70
2018-11-23T05:38:23.802Z,93.70
2018-11-23T05:38:56.404Z,93.90
2018-11-23T05:39:29.040Z,93.70
2018-11-23T05:40:01.659Z,93.90
2018-11-23T05:40:34.256Z,93.90
2018-11-23T05:41:06.874Z,94.00
2018-11-23T05:41:39.499Z,94.00
2018-11-23T05:42:12.094Z,93.90
2018-11-23T05:42:44.703Z,94.00
2018-11-23T05:43:17.348Z,94.00
2018-11-23T05:43:50.004Z,94.00
2018-11-23T05:44:22.614Z,94.00
2018-11-23T05:44:55.233Z,94.00
2018-11-23T05:45:27.829Z,94.00
2018-11-23T05:46:00.451Z,94.00
2018-11-23T05:46:33.221Z,94.10
2018-11-23T05:47:06.177Z,94.20
2018-11-23T05:47:38.804Z,94.10
2018-11-23T05:48:11.412Z,94.10
2018-11-23T05:48:44.050Z,94.20
2018-11-23T05:49:16.680Z,94.00
2018-11-23T05:49:49.291Z,94.10
2018-11-23T05:50:24.012Z,94.10
2018-11-23T05:50:56.612Z,94.20
2018-11-23T05:51:29.243Z,94.30
2018-11-23T05:52:01.874Z,94.30
2018-11-23T05:52:34.500Z,94.40
2018-11-23T05:53:07.102Z,94.30
2018-11-23T05:53:39.693Z,94.30
2018-11-23T05:54:12.476Z,94.30
2018-11-23T05:54:45.075Z,94.40
2018-11-23T05:55:17.700Z,94.40
2018-11-23T05:55:50.336Z,94.40
2018-11-23T05:56:22.963Z,94.40
2018-11-23T05:56:55.588Z,94.30
2018-11-23T05:57:28.196Z,94.40
2018-11-23T05:58:00.795Z,94.60
2018-11-23T05:58:33.439Z,94.70
2018-11-23T05:59:06.146Z,94.80
2018-11-23T05:59:38.799Z,94.90
2018-11-23T06:00:14.260Z,94.90
2018-11-23T06:00:46.883Z,94.70
2018-11-23T06:01:19.476Z,94.80
2018-11-23T06:01:52.310Z,94.60
2018-11-23T06:02:24.993Z,94.70
2018-11-23T06:02:57.596Z,94.60
2018-11-23T06:03:30.227Z,94.60
2018-11-23T06:04:02.865Z,94.70
2018-11-23T06:04:35.491Z,94.80
2018-11-23T06:05:08.645Z,94.80
2018-11-23T06:05:41.316Z,94.70
2018-11-23T06:06:13.922Z,94.70
2018-11-23T06:06:46.511Z,94.80
2018-11-23T06:07:19.095Z,94.90
2018-11-23T06:07:51.807Z,94.90
2018-11-23T06:08:24.437Z,95.00
2018-11-23T06:08:57.053Z,95.10
2018-11-23T06:09:29.643Z,95.10
2018-11-23T06:10:02.320Z,95.00
2018-11-23T06:10:34.974Z,95.10
2018-11-23T06:11:07.592Z,95.10
2018-11-23T06:11:40.203Z,95.10
2018-11-23T06:12:12.828Z,95.20
2018-11-23T06:12:45.464Z,95.20
2018-11-23T06:13:18.080Z,95.30
2018-11-23T06:13:50.701Z,95.30
2018-11-23T06:14:23.307Z,95.20
2018-11-23T06:14:55.924Z,95.20
2018-11-23T06:15:28.549Z,95.10
2018-11-23T06:16:01.180Z,95.00
2018-11-23T06:16:33.787Z,95.00
2018-11-23T06:17:06.411Z,95.00
2018-11-23T06:17:39.112Z,95.30
2018-11-23T06:18:11.709Z,95.00
2018-11-23T06:18:44.334Z,95.00
2018-11-23T06:19:16.949Z,95.10
2018-11-23T06:19:49.546Z,95.10
2018-11-23T06:20:23.665Z,95.10
2018-11-23T06:20:56.279Z,95.10
2018-11-23T06:21:28.985Z,95.10
2018-11-23T06:22:01.598Z,95.00
2018-11-23T06:22:34.209Z,95.00
2018-11-23T06:23:06.841Z,95.00
2018-11-23T06:23:39.460Z,95.10
2018-11-23T06:24:12.059Z,95.00
2018-11-23T06:24:44.673Z,94.90
2018-11-23T06:25:37.159Z,94.90
2018-11-23T06:26:16.453Z,94.90
2018-11-23T06:26:49.103Z,95.00
2018-11-23T06:27:21.708Z,94.90
2018-11-23T06:27:54.340Z,94.90
2018-11-23T06:28:26.947Z,95.00
2018-11-23T06:28:59.527Z,95.10
2018-11-23T06:29:32.141Z,95.00
2018-11-23T06:30:05.927Z,95.00
2018-11-23T06:30:38.541Z,95.00
2018-11-23T06:31:11.581Z,95.10
2018-11-23T06:31:44.187Z,95.00
2018-11-23T06:32:28.318Z,95.00
2018-11-23T06:33:12.700Z,95.00
2018-11-23T06:33:46.360Z,95.10
2018-11-23T06:34:18.955Z,95.20
2018-11-23T06:34:51.573Z,95.20
2018-11-23T06:35:24.197Z,95.50
2018-11-23T06:35:56.788Z,95.50
2018-11-23T06:36:29.379Z,95.30
2018-11-23T06:37:01.984Z,95.30
2018-11-23T06:37:34.616Z,95.20
2018-11-23T06:38:07.282Z,95.10
2018-11-23T06:38:39.884Z,95.10
2018-11-23T06:39:12.484Z,95.10
2018-11-23T06:39:45.107Z,95.10
2018-11-23T06:40:18.258Z,95.00
2018-11-23T06:40:50.967Z,95.10
2018-11-23T06:41:23.572Z,95.00
2018-11-23T06:41:56.172Z,95.00
2018-11-23T06:42:28.801Z,95.10
2018-11-23T06:43:01.508Z,95.20
2018-11-23T06:43:34.145Z,95.10
2018-11-23T06:44:06.787Z,95.00
2018-11-23T06:44:39.413Z,94.90
2018-11-23T06:45:12.129Z,94.90
2018-11-23T06:46:47.953Z,94.90
2018-11-23T06:47:20.573Z,95.00
2018-11-23T06:47:53.184Z,95.00
2018-11-23T06:48:25.846Z,95.10
2018-11-23T06:48:58.454Z,95.10
2018-11-23T06:49:31.030Z,95.10
2018-11-23T06:50:04.088Z,95.10
2018-11-23T06:50:36.688Z,95.20
2018-11-23T06:51:09.312Z,95.10
2018-11-23T06:51:41.913Z,95.10
2018-11-23T06:52:14.515Z,94.90
2018-11-23T06:52:47.136Z,94.90
2018-11-23T06:53:19.743Z,95.10
2018-11-23T06:53:52.377Z,94.90
2018-11-23T06:54:24.958Z,94.90
2018-11-23T06:54:57.567Z,95.00
2018-11-23T06:55:30.180Z,95.10
2018-11-23T06:56:03.480Z,95.00
2018-11-23T06:56:36.076Z,95.00
2018-11-23T06:57:08.690Z,95.00
2018-11-23T06:57:41.615Z,95.00
2018-11-23T06:58:14.228Z,95.00
2018-11-23T06:58:46.886Z,95.00
2018-11-23T06:59:19.506Z,95.00
2018-11-23T06:59:52.158Z,95.10
2018-11-23T07:00:24.795Z,95.10
2018-11-23T07:00:57.602Z,95.20
2018-11-23T07:01:30.206Z,95.00
2018-11-23T07:02:02.842Z,95.10
2018-11-23T07:02:35.447Z,95.00
2018-11-23T07:03:08.084Z,95.20
2018-11-23T07:03:40.704Z,95.10
2018-11-23T07:04:13.310Z,95.10
2018-11-23T07:04:45.942Z,95.10
2018-11-23T07:05:18.553Z,95.10